sensor_id;sensor_type;location;lat;lon;timestamp;temperature;humidity
32334;DHT22;18810;53.040;8.850;2023-09-19T00:02:18;17.00;99.90
32334;DHT22;18810;53.040;8.850;2023-09-19T00:04:44;17.00;99.90
32334;DHT22;18810;53.040;8.850;2023-09-19T00:07:10;17.10;99.90
32334;DHT22;18810;53.040;8.850;2023-09-19T00:09:35;17.00;99.90
32334;DHT22;18810;53.040;8.850;2023-09-19T00:12:05;16.90;99.90
32334;DHT22;18810;53.040;8.850;2023-09-19T00:14:31;16.90;99.90
32334;DHT22;18810;53.040;8.850;2023-09-19T00:17:01;17.00;99.90
32334;DHT22;18810;53.040;8.850;2023-09-19T00:19:32;17.00;99.90
32334;DHT22;18810;53.040;8.850;2023-09-19T00:21:58;17.00;99.90
32334;DHT22;18810;53.040;8.850;2023-09-19T00:24:24;17.00;99.90
32334;DHT22;18810;53.040;8.850;2023-09-19T00:26:49;17.00;99.90
32334;DHT22;18810;53.040;8.850;2023-09-19T00:29:15;17.00;99.90
32334;DHT22;18810;53.040;8.850;2023-09-19T00:31:44;17.00;99.90
32334;DHT22;18810;53.040;8.850;2023-09-19T00:34:10;17.10;99.90
32334;DHT22;18810;53.040;8.850;2023-09-19T00:36:37;17.10;99.90
32334;DHT22;18810;53.040;8.850;2023-09-19T00:39:05;17.10;99.90
32334;DHT22;18810;53.040;8.850;2023-09-19T00:41:35;17.10;99.90
32334;DHT22;18810;53.040;8.850;2023-09-19T00:44:04;17.20;99.90
32334;DHT22;18810;53.040;8.850;2023-09-19T00:46:33;17.10;99.90
32334;DHT22;18810;53.040;8.850;2023-09-19T00:48:58;17.10;99.90
32334;DHT22;18810;53.040;8.850;2023-09-19T00:51:25;17.00;99.90
32334;DHT22;18810;53.040;8.850;2023-09-19T00:53:53;17.20;99.90
32334;DHT22;18810;53.040;8.850;2023-09-19T00:56:19;17.20;99.90
32334;DHT22;18810;53.040;8.850;2023-09-19T00:58:46;17.30;99.90
32334;DHT22;18810;53.040;8.850;2023-09-19T01:01:16;17.20;99.90
32334;DHT22;18810;53.040;8.850;2023-09-19T01:03:42;17.30;99.90
32334;DHT22;18810;53.040;8.850;2023-09-19T01:06:09;17.30;99.90
32334;DHT22;18810;53.040;8.850;2023-09-19T01:08:35;17.30;99.90
32334;DHT22;18810;53.040;8.850;2023-09-19T01:11:28;17.30;99.90
32334;DHT22;18810;53.040;8.850;2023-09-19T01:14:53;17.30;99.90
32334;DHT22;18810;53.040;8.850;2023-09-19T01:17:20;17.30;99.90
32334;DHT22;18810;53.040;8.850;2023-09-19T01:20:17;17.10;99.90
32334;DHT22;18810;53.040;8.850;2023-09-19T01:25:42;16.70;99.90
32334;DHT22;18810;53.040;8.850;2023-09-19T01:28:32;16.30;99.90
32334;DHT22;18810;53.040;8.850;2023-09-19T01:31:06;15.70;99.90
32334;DHT22;18810;53.040;8.850;2023-09-19T01:34:02;15.60;99.90
32334;DHT22;18810;53.040;8.850;2023-09-19T01:36:37;15.50;99.90
32334;DHT22;18810;53.040;8.850;2023-09-19T01:39:05;15.40;99.90
32334;DHT22;18810;53.040;8.850;2023-09-19T01:42:01;15.30;99.90
32334;DHT22;18810;53.040;8.850;2023-09-19T01:45:03;15.10;99.90
32334;DHT22;18810;53.040;8.850;2023-09-19T01:47:31;15.10;99.90
32334;DHT22;18810;53.040;8.850;2023-09-19T01:50:02;15.10;99.90
32334;DHT22;18810;53.040;8.850;2023-09-19T01:52:38;15.10;99.90
32334;DHT22;18810;53.040;8.850;2023-09-19T01:55:09;15.10;99.90
32334;DHT22;18810;53.040;8.850;2023-09-19T01:58:06;15.10;99.90
32334;DHT22;18810;53.040;8.850;2023-09-19T02:00:35;15.10;99.90
32334;DHT22;18810;53.040;8.850;2023-09-19T02:03:03;15.20;99.90
32334;DHT22;18810;53.040;8.850;2023-09-19T02:05:29;15.00;99.90
32334;DHT22;18810;53.040;8.850;2023-09-19T02:07:55;15.10;99.90
32334;DHT22;18810;53.040;8.850;2023-09-19T02:10:22;15.10;99.90
32334;DHT22;18810;53.040;8.850;2023-09-19T02:12:49;15.10;99.90
32334;DHT22;18810;53.040;8.850;2023-09-19T02:15:15;15.10;99.90
32334;DHT22;18810;53.040;8.850;2023-09-19T02:17:42;15.10;99.90
32334;DHT22;18810;53.040;8.850;2023-09-19T02:20:10;15.10;99.90
32334;DHT22;18810;53.040;8.850;2023-09-19T02:22:40;15.10;99.90
32334;DHT22;18810;53.040;8.850;2023-09-19T02:25:06;15.10;99.90
32334;DHT22;18810;53.040;8.850;2023-09-19T02:27:33;15.10;99.90
32334;DHT22;18810;53.040;8.850;2023-09-19T02:29:59;15.10;99.90
32334;DHT22;18810;53.040;8.850;2023-09-19T02:32:29;15.00;99.90
32334;DHT22;18810;53.040;8.850;2023-09-19T02:34:57;15.00;99.90
32334;DHT22;18810;53.040;8.850;2023-09-19T02:37:23;15.00;99.90
32334;DHT22;18810;53.040;8.850;2023-09-19T02:39:49;15.00;99.90
32334;DHT22;18810;53.040;8.850;2023-09-19T02:42:14;14.90;99.90
32334;DHT22;18810;53.040;8.850;2023-09-19T02:44:40;14.90;99.90
32334;DHT22;18810;53.040;8.850;2023-09-19T02:47:06;14.90;99.90
32334;DHT22;18810;53.040;8.850;2023-09-19T02:49:31;14.90;99.90
32334;DHT22;18810;53.040;8.850;2023-09-19T02:51:58;15.00;99.90
32334;DHT22;18810;53.040;8.850;2023-09-19T02:54:28;15.00;99.90
32334;DHT22;18810;53.040;8.850;2023-09-19T02:56:54;14.80;99.90
32334;DHT22;18810;53.040;8.850;2023-09-19T02:59:20;14.90;99.90
32334;DHT22;18810;53.040;8.850;2023-09-19T03:01:45;14.80;99.90
32334;DHT22;18810;53.040;8.850;2023-09-19T03:04:14;14.80;99.90
32334;DHT22;18810;53.040;8.850;2023-09-19T03:06:42;14.60;99.90
32334;DHT22;18810;53.040;8.850;2023-09-19T03:09:08;14.60;99.90
32334;DHT22;18810;53.040;8.850;2023-09-19T03:11:36;14.60;99.90
32334;DHT22;18810;53.040;8.850;2023-09-19T03:14:03;14.30;99.90
32334;DHT22;18810;53.040;8.850;2023-09-19T03:16:29;14.50;99.90
32334;DHT22;18810;53.040;8.850;2023-09-19T03:18:55;14.40;99.90
32334;DHT22;18810;53.040;8.850;2023-09-19T03:21:20;14.30;99.90
32334;DHT22;18810;53.040;8.850;2023-09-19T03:23:47;14.40;99.90
32334;DHT22;18810;53.040;8.850;2023-09-19T03:26:13;14.30;99.90
32334;DHT22;18810;53.040;8.850;2023-09-19T03:28:41;14.60;99.90
32334;DHT22;18810;53.040;8.850;2023-09-19T03:31:07;14.50;99.90
32334;DHT22;18810;53.040;8.850;2023-09-19T03:33:33;14.40;99.90
32334;DHT22;18810;53.040;8.850;2023-09-19T03:36:03;14.30;99.90
32334;DHT22;18810;53.040;8.850;2023-09-19T03:38:30;14.30;99.90
32334;DHT22;18810;53.040;8.850;2023-09-19T03:40:57;14.40;99.90
32334;DHT22;18810;53.040;8.850;2023-09-19T03:43:23;14.30;99.90
32334;DHT22;18810;53.040;8.850;2023-09-19T03:45:49;14.40;99.90
32334;DHT22;18810;53.040;8.850;2023-09-19T03:48:16;14.50;99.90
32334;DHT22;18810;53.040;8.850;2023-09-19T03:50:42;14.40;99.90
32334;DHT22;18810;53.040;8.850;2023-09-19T03:53:09;14.30;99.90
32334;DHT22;18810;53.040;8.850;2023-09-19T03:58:02;14.50;99.90
32334;DHT22;18810;53.040;8.850;2023-09-19T04:00:27;14.40;99.90
32334;DHT22;18810;53.040;8.850;2023-09-19T04:02:55;14.30;99.90
32334;DHT22;18810;53.040;8.850;2023-09-19T04:05:22;14.30;99.90
32334;DHT22;18810;53.040;8.850;2023-09-19T04:07:48;14.30;99.90
32334;DHT22;18810;53.040;8.850;2023-09-19T04:10:14;14.30;99.90
32334;DHT22;18810;53.040;8.850;2023-09-19T04:12:40;14.40;99.90
32334;DHT22;18810;53.040;8.850;2023-09-19T04:15:06;14.30;99.90
32334;DHT22;18810;53.040;8.850;2023-09-19T04:17:33;14.30;99.90
32334;DHT22;18810;53.040;8.850;2023-09-19T04:19:59;14.40;99.90
32334;DHT22;18810;53.040;8.850;2023-09-19T04:22:25;14.30;99.90
32334;DHT22;18810;53.040;8.850;2023-09-19T04:24:51;14.30;99.90
32334;DHT22;18810;53.040;8.850;2023-09-19T04:27:17;14.30;99.90
32334;DHT22;18810;53.040;8.850;2023-09-19T04:29:44;14.30;99.90
32334;DHT22;18810;53.040;8.850;2023-09-19T04:32:10;14.30;99.90
32334;DHT22;18810;53.040;8.850;2023-09-19T04:34:36;14.30;99.90
32334;DHT22;18810;53.040;8.850;2023-09-19T04:37:03;14.30;99.90
32334;DHT22;18810;53.040;8.850;2023-09-19T04:39:29;14.30;99.90
32334;DHT22;18810;53.040;8.850;2023-09-19T04:41:55;14.30;99.90
32334;DHT22;18810;53.040;8.850;2023-09-19T04:44:21;14.20;99.90
32334;DHT22;18810;53.040;8.850;2023-09-19T04:46:47;14.20;99.90
32334;DHT22;18810;53.040;8.850;2023-09-19T04:49:13;14.20;99.90
32334;DHT22;18810;53.040;8.850;2023-09-19T04:51:39;14.20;99.90
32334;DHT22;18810;53.040;8.850;2023-09-19T04:54:06;14.20;99.90
32334;DHT22;18810;53.040;8.850;2023-09-19T04:56:32;14.20;99.90
32334;DHT22;18810;53.040;8.850;2023-09-19T04:58:59;14.20;99.90
32334;DHT22;18810;53.040;8.850;2023-09-19T05:01:25;14.20;99.90
32334;DHT22;18810;53.040;8.850;2023-09-19T05:03:51;14.20;99.90
32334;DHT22;18810;53.040;8.850;2023-09-19T05:06:20;14.20;99.90
32334;DHT22;18810;53.040;8.850;2023-09-19T05:08:49;14.10;99.90
32334;DHT22;18810;53.040;8.850;2023-09-19T05:11:20;14.20;99.90
32334;DHT22;18810;53.040;8.850;2023-09-19T05:13:50;14.20;99.90
32334;DHT22;18810;53.040;8.850;2023-09-19T05:16:16;14.20;99.90
32334;DHT22;18810;53.040;8.850;2023-09-19T05:18:42;14.30;99.90
32334;DHT22;18810;53.040;8.850;2023-09-19T05:21:08;14.20;99.90
32334;DHT22;18810;53.040;8.850;2023-09-19T05:23:33;14.30;99.90
32334;DHT22;18810;53.040;8.850;2023-09-19T05:25:59;14.40;99.90
32334;DHT22;18810;53.040;8.850;2023-09-19T05:28:26;14.40;99.90
32334;DHT22;18810;53.040;8.850;2023-09-19T05:30:52;14.40;99.90
32334;DHT22;18810;53.040;8.850;2023-09-19T05:33:19;14.40;99.90
32334;DHT22;18810;53.040;8.850;2023-09-19T05:35:45;14.50;99.90
32334;DHT22;18810;53.040;8.850;2023-09-19T05:38:13;14.50;99.90
32334;DHT22;18810;53.040;8.850;2023-09-19T05:40:39;14.70;99.90
32334;DHT22;18810;53.040;8.850;2023-09-19T05:43:08;14.70;99.90
32334;DHT22;18810;53.040;8.850;2023-09-19T05:45:34;14.80;99.90
32334;DHT22;18810;53.040;8.850;2023-09-19T05:48:12;14.80;99.90
32334;DHT22;18810;53.040;8.850;2023-09-19T05:50:38;14.90;99.90
32334;DHT22;18810;53.040;8.850;2023-09-19T05:53:04;15.00;99.90
32334;DHT22;18810;53.040;8.850;2023-09-19T05:55:31;15.20;99.90
32334;DHT22;18810;53.040;8.850;2023-09-19T05:57:56;15.30;99.90
32334;DHT22;18810;53.040;8.850;2023-09-19T06:00:23;15.50;99.90
32334;DHT22;18810;53.040;8.850;2023-09-19T06:02:54;15.50;99.90
32334;DHT22;18810;53.040;8.850;2023-09-19T06:05:20;15.50;99.90
32334;DHT22;18810;53.040;8.850;2023-09-19T06:07:46;15.50;99.90
32334;DHT22;18810;53.040;8.850;2023-09-19T06:10:12;15.50;99.90
32334;DHT22;18810;53.040;8.850;2023-09-19T06:12:42;15.50;99.90
32334;DHT22;18810;53.040;8.850;2023-09-19T06:15:12;15.50;99.90
32334;DHT22;18810;53.040;8.850;2023-09-19T06:17:47;15.50;99.90
32334;DHT22;18810;53.040;8.850;2023-09-19T06:20:13;15.50;99.90
32334;DHT22;18810;53.040;8.850;2023-09-19T06:22:43;15.50;99.90
32334;DHT22;18810;53.040;8.850;2023-09-19T06:25:10;15.50;99.90
32334;DHT22;18810;53.040;8.850;2023-09-19T06:27:48;15.60;99.90
32334;DHT22;18810;53.040;8.850;2023-09-19T06:30:18;15.40;99.90
32334;DHT22;18810;53.040;8.850;2023-09-19T06:32:44;15.40;99.90
32334;DHT22;18810;53.040;8.850;2023-09-19T06:35:11;15.40;99.90
32334;DHT22;18810;53.040;8.850;2023-09-19T06:37:38;15.50;99.90
32334;DHT22;18810;53.040;8.850;2023-09-19T06:42:57;15.60;99.90
32334;DHT22;18810;53.040;8.850;2023-09-19T06:45:23;15.70;99.90
32334;DHT22;18810;53.040;8.850;2023-09-19T06:47:52;15.70;99.90
32334;DHT22;18810;53.040;8.850;2023-09-19T06:50:21;15.70;99.90
32334;DHT22;18810;53.040;8.850;2023-09-19T06:52:52;15.80;99.90
32334;DHT22;18810;53.040;8.850;2023-09-19T06:55:19;15.80;99.90
32334;DHT22;18810;53.040;8.850;2023-09-19T06:57:48;15.90;99.90
32334;DHT22;18810;53.040;8.850;2023-09-19T07:00:15;15.90;99.90
32334;DHT22;18810;53.040;8.850;2023-09-19T07:02:42;16.00;99.90
32334;DHT22;18810;53.040;8.850;2023-09-19T07:05:08;16.10;99.90
32334;DHT22;18810;53.040;8.850;2023-09-19T07:07:33;16.30;99.90
32334;DHT22;18810;53.040;8.850;2023-09-19T07:10:03;16.40;99.90
32334;DHT22;18810;53.040;8.850;2023-09-19T07:12:31;16.40;99.90
32334;DHT22;18810;53.040;8.850;2023-09-19T07:14:58;16.30;99.90
32334;DHT22;18810;53.040;8.850;2023-09-19T07:17:24;16.20;99.90
32334;DHT22;18810;53.040;8.850;2023-09-19T07:19:49;16.10;99.90
32334;DHT22;18810;53.040;8.850;2023-09-19T07:22:16;16.00;99.90
32334;DHT22;18810;53.040;8.850;2023-09-19T07:24:41;16.30;99.90
32334;DHT22;18810;53.040;8.850;2023-09-19T07:27:08;16.60;99.90
32334;DHT22;18810;53.040;8.850;2023-09-19T07:29:34;17.00;99.90
32334;DHT22;18810;53.040;8.850;2023-09-19T07:32:00;17.20;99.90
32334;DHT22;18810;53.040;8.850;2023-09-19T07:34:25;17.20;99.90
32334;DHT22;18810;53.040;8.850;2023-09-19T07:36:51;17.20;99.90
32334;DHT22;18810;53.040;8.850;2023-09-19T07:39:17;17.20;99.90
32334;DHT22;18810;53.040;8.850;2023-09-19T07:41:42;17.30;99.90
32334;DHT22;18810;53.040;8.850;2023-09-19T07:44:08;17.30;99.90
32334;DHT22;18810;53.040;8.850;2023-09-19T07:46:37;17.40;99.90
32334;DHT22;18810;53.040;8.850;2023-09-19T07:49:02;17.70;99.90
32334;DHT22;18810;53.040;8.850;2023-09-19T07:51:28;17.70;99.90
32334;DHT22;18810;53.040;8.850;2023-09-19T07:53:54;17.90;99.90
32334;DHT22;18810;53.040;8.850;2023-09-19T07:56:20;17.90;99.90
32334;DHT22;18810;53.040;8.850;2023-09-19T07:58:46;17.60;99.90
32334;DHT22;18810;53.040;8.850;2023-09-19T08:01:12;17.70;99.90
32334;DHT22;18810;53.040;8.850;2023-09-19T08:03:39;17.90;99.90
32334;DHT22;18810;53.040;8.850;2023-09-19T08:06:09;17.90;99.90
32334;DHT22;18810;53.040;8.850;2023-09-19T08:08:36;18.00;99.90
32334;DHT22;18810;53.040;8.850;2023-09-19T08:11:03;18.20;99.90
32334;DHT22;18810;53.040;8.850;2023-09-19T08:13:41;18.30;99.90
32334;DHT22;18810;53.040;8.850;2023-09-19T08:16:11;18.70;99.90
32334;DHT22;18810;53.040;8.850;2023-09-19T08:18:37;18.60;99.90
32334;DHT22;18810;53.040;8.850;2023-09-19T08:21:06;18.70;99.90
32334;DHT22;18810;53.040;8.850;2023-09-19T08:23:39;18.90;99.90
32334;DHT22;18810;53.040;8.850;2023-09-19T08:26:06;18.90;99.90
32334;DHT22;18810;53.040;8.850;2023-09-19T08:28:35;19.10;99.90
32334;DHT22;18810;53.040;8.850;2023-09-19T08:31:05;19.00;99.90
32334;DHT22;18810;53.040;8.850;2023-09-19T08:33:34;19.10;99.90
32334;DHT22;18810;53.040;8.850;2023-09-19T08:36:01;19.10;99.90
32334;DHT22;18810;53.040;8.850;2023-09-19T08:38:31;19.10;99.90
32334;DHT22;18810;53.040;8.850;2023-09-19T08:40:59;19.10;99.90
32334;DHT22;18810;53.040;8.850;2023-09-19T08:43:28;19.10;99.90
32334;DHT22;18810;53.040;8.850;2023-09-19T08:46:06;19.00;99.90
32334;DHT22;18810;53.040;8.850;2023-09-19T08:48:34;18.80;99.90
32334;DHT22;18810;53.040;8.850;2023-09-19T08:51:10;18.90;99.90
32334;DHT22;18810;53.040;8.850;2023-09-19T08:53:51;19.10;99.90
32334;DHT22;18810;53.040;8.850;2023-09-19T08:56:19;19.20;99.90
32334;DHT22;18810;53.040;8.850;2023-09-19T08:58:55;19.40;99.90
32334;DHT22;18810;53.040;8.850;2023-09-19T09:01:27;19.50;99.90
32334;DHT22;18810;53.040;8.850;2023-09-19T09:03:55;19.80;99.90
32334;DHT22;18810;53.040;8.850;2023-09-19T09:06:21;20.00;99.90
32334;DHT22;18810;53.040;8.850;2023-09-19T09:08:47;19.70;99.90
32334;DHT22;18810;53.040;8.850;2023-09-19T09:11:15;19.80;99.90
32334;DHT22;18810;53.040;8.850;2023-09-19T09:13:46;19.80;99.90
32334;DHT22;18810;53.040;8.850;2023-09-19T09:16:12;20.10;99.90
32334;DHT22;18810;53.040;8.850;2023-09-19T09:18:39;20.00;99.90
32334;DHT22;18810;53.040;8.850;2023-09-19T09:21:05;20.10;99.90
32334;DHT22;18810;53.040;8.850;2023-09-19T09:23:32;20.10;99.90
32334;DHT22;18810;53.040;8.850;2023-09-19T09:25:58;20.30;99.90
32334;DHT22;18810;53.040;8.850;2023-09-19T09:28:30;20.20;99.90
32334;DHT22;18810;53.040;8.850;2023-09-19T09:30:57;20.20;99.90
32334;DHT22;18810;53.040;8.850;2023-09-19T09:33:28;20.10;99.90
32334;DHT22;18810;53.040;8.850;2023-09-19T09:36:01;20.10;99.90
32334;DHT22;18810;53.040;8.850;2023-09-19T09:38:29;20.00;99.90
32334;DHT22;18810;53.040;8.850;2023-09-19T09:41:00;19.90;99.90
32334;DHT22;18810;53.040;8.850;2023-09-19T09:46:15;20.20;99.90
32334;DHT22;18810;53.040;8.850;2023-09-19T09:49:04;20.80;99.90
32334;DHT22;18810;53.040;8.850;2023-09-19T09:52:06;21.40;99.90
32334;DHT22;18810;53.040;8.850;2023-09-19T09:54:34;21.50;99.90
32334;DHT22;18810;53.040;8.850;2023-09-19T09:57:08;21.80;99.90
32334;DHT22;18810;53.040;8.850;2023-09-19T09:59:52;21.80;99.90
32334;DHT22;18810;53.040;8.850;2023-09-19T10:02:21;21.00;99.90
32334;DHT22;18810;53.040;8.850;2023-09-19T10:04:51;20.40;99.90
32334;DHT22;18810;53.040;8.850;2023-09-19T10:07:29;20.40;99.90
32334;DHT22;18810;53.040;8.850;2023-09-19T10:09:59;20.80;99.90
32334;DHT22;18810;53.040;8.850;2023-09-19T10:12:38;20.80;99.90
32334;DHT22;18810;53.040;8.850;2023-09-19T10:15:07;20.50;99.90
32334;DHT22;18810;53.040;8.850;2023-09-19T10:17:36;20.50;99.90
32334;DHT22;18810;53.040;8.850;2023-09-19T10:20:02;20.70;99.90
32334;DHT22;18810;53.040;8.850;2023-09-19T10:22:39;20.50;99.90
32334;DHT22;18810;53.040;8.850;2023-09-19T10:25:08;20.30;99.90
32334;DHT22;18810;53.040;8.850;2023-09-19T10:27:36;20.50;99.90
32334;DHT22;18810;53.040;8.850;2023-09-19T10:30:06;20.60;99.90
32334;DHT22;18810;53.040;8.850;2023-09-19T10:32:35;20.40;99.90
32334;DHT22;18810;53.040;8.850;2023-09-19T10:35:02;20.00;99.90
32334;DHT22;18810;53.040;8.850;2023-09-19T10:37:32;20.10;99.90
32334;DHT22;18810;53.040;8.850;2023-09-19T10:39:59;20.50;99.90
32334;DHT22;18810;53.040;8.850;2023-09-19T10:42:25;21.00;99.90
32334;DHT22;18810;53.040;8.850;2023-09-19T10:44:55;21.30;99.90
32334;DHT22;18810;53.040;8.850;2023-09-19T10:47:26;21.50;99.90
32334;DHT22;18810;53.040;8.850;2023-09-19T10:49:52;21.30;99.90
32334;DHT22;18810;53.040;8.850;2023-09-19T10:52:21;21.80;99.90
32334;DHT22;18810;53.040;8.850;2023-09-19T10:54:48;21.80;99.90
32334;DHT22;18810;53.040;8.850;2023-09-19T10:57:24;22.10;99.90
32334;DHT22;18810;53.040;8.850;2023-09-19T11:00:06;22.30;99.90
32334;DHT22;18810;53.040;8.850;2023-09-19T11:05:37;22.10;99.50
32334;DHT22;18810;53.040;8.850;2023-09-19T11:08:09;21.80;99.90
32334;DHT22;18810;53.040;8.850;2023-09-19T11:10:47;22.00;99.90
32334;DHT22;18810;53.040;8.850;2023-09-19T11:13:32;21.80;99.70
32334;DHT22;18810;53.040;8.850;2023-09-19T11:26:44;22.50;98.90
32334;DHT22;18810;53.040;8.850;2023-09-19T11:29:26;22.80;98.00
32334;DHT22;18810;53.040;8.850;2023-09-19T11:31:54;22.50;98.00
32334;DHT22;18810;53.040;8.850;2023-09-19T11:39:37;22.30;97.70
32334;DHT22;18810;53.040;8.850;2023-09-19T11:42:49;22.20;97.60
32334;DHT22;18810;53.040;8.850;2023-09-19T11:48:16;22.20;98.20
32334;DHT22;18810;53.040;8.850;2023-09-19T11:50:46;22.20;97.90
32334;DHT22;18810;53.040;8.850;2023-09-19T11:53:13;22.50;98.00
32334;DHT22;18810;53.040;8.850;2023-09-19T11:55:42;22.40;97.90
32334;DHT22;18810;53.040;8.850;2023-09-19T11:58:08;22.60;97.50
32334;DHT22;18810;53.040;8.850;2023-09-19T12:00:38;22.80;97.40
32334;DHT22;18810;53.040;8.850;2023-09-19T12:03:10;23.00;96.80
32334;DHT22;18810;53.040;8.850;2023-09-19T12:05:37;22.90;96.60
32334;DHT22;18810;53.040;8.850;2023-09-19T12:08:09;22.80;97.20
32334;DHT22;18810;53.040;8.850;2023-09-19T12:10:50;22.50;98.00
32334;DHT22;18810;53.040;8.850;2023-09-19T12:13:21;22.90;97.20
32334;DHT22;18810;53.040;8.850;2023-09-19T12:15:47;22.70;97.20
32334;DHT22;18810;53.040;8.850;2023-09-19T12:18:29;22.60;97.10
32334;DHT22;18810;53.040;8.850;2023-09-19T12:20:55;22.70;97.00
32334;DHT22;18810;53.040;8.850;2023-09-19T12:23:23;22.80;96.30
32334;DHT22;18810;53.040;8.850;2023-09-19T12:25:48;23.20;96.50
32334;DHT22;18810;53.040;8.850;2023-09-19T12:28:19;23.40;96.20
32334;DHT22;18810;53.040;8.850;2023-09-19T12:30:48;23.00;96.00
32334;DHT22;18810;53.040;8.850;2023-09-19T12:33:21;22.50;95.90
32334;DHT22;18810;53.040;8.850;2023-09-19T12:35:50;22.40;96.70
32334;DHT22;18810;53.040;8.850;2023-09-19T12:38:27;22.90;96.40
32334;DHT22;18810;53.040;8.850;2023-09-19T12:40:55;22.90;95.60
32334;DHT22;18810;53.040;8.850;2023-09-19T12:43:22;22.90;95.90
32334;DHT22;18810;53.040;8.850;2023-09-19T12:45:48;23.60;96.10
32334;DHT22;18810;53.040;8.850;2023-09-19T12:48:25;24.00;95.20
32334;DHT22;18810;53.040;8.850;2023-09-19T12:51:12;24.00;94.60
32334;DHT22;18810;53.040;8.850;2023-09-19T12:53:40;23.50;95.10
32334;DHT22;18810;53.040;8.850;2023-09-19T12:56:08;23.20;95.20
32334;DHT22;18810;53.040;8.850;2023-09-19T12:58:51;22.80;95.80
32334;DHT22;18810;53.040;8.850;2023-09-19T13:01:19;22.80;96.30
32334;DHT22;18810;53.040;8.850;2023-09-19T13:03:45;23.30;96.20
32334;DHT22;18810;53.040;8.850;2023-09-19T13:06:11;23.50;96.00
32334;DHT22;18810;53.040;8.850;2023-09-19T13:08:39;24.00;95.60
32334;DHT22;18810;53.040;8.850;2023-09-19T13:11:17;23.70;95.80
32334;DHT22;18810;53.040;8.850;2023-09-19T13:16:59;24.50;95.20
32334;DHT22;18810;53.040;8.850;2023-09-19T13:19:50;24.00;95.40
32334;DHT22;18810;53.040;8.850;2023-09-19T13:22:45;23.60;95.90
32334;DHT22;18810;53.040;8.850;2023-09-19T13:25:16;23.10;96.50
32334;DHT22;18810;53.040;8.850;2023-09-19T13:27:47;22.70;97.80
32334;DHT22;18810;53.040;8.850;2023-09-19T13:30:18;22.70;97.90
32334;DHT22;18810;53.040;8.850;2023-09-19T13:32:44;23.40;97.40
32334;DHT22;18810;53.040;8.850;2023-09-19T13:35:12;23.90;96.70
32334;DHT22;18810;53.040;8.850;2023-09-19T13:37:39;23.70;96.60
32334;DHT22;18810;53.040;8.850;2023-09-19T13:40:10;23.00;97.50
32334;DHT22;18810;53.040;8.850;2023-09-19T13:42:37;22.90;97.40
32334;DHT22;18810;53.040;8.850;2023-09-19T13:45:04;23.40;97.00
32334;DHT22;18810;53.040;8.850;2023-09-19T13:47:33;23.60;96.60
32334;DHT22;18810;53.040;8.850;2023-09-19T13:50:02;23.90;96.50
32334;DHT22;18810;53.040;8.850;2023-09-19T13:52:30;23.50;96.80
32334;DHT22;18810;53.040;8.850;2023-09-19T13:54:56;23.10;97.10
32334;DHT22;18810;53.040;8.850;2023-09-19T13:57:25;23.10;97.30
32334;DHT22;18810;53.040;8.850;2023-09-19T13:59:52;22.80;97.40
32334;DHT22;18810;53.040;8.850;2023-09-19T14:02:23;22.50;98.40
32334;DHT22;18810;53.040;8.850;2023-09-19T14:04:49;22.50;98.60
32334;DHT22;18810;53.040;8.850;2023-09-19T14:07:15;23.10;98.20
32334;DHT22;18810;53.040;8.850;2023-09-19T14:09:44;23.40;97.70
32334;DHT22;18810;53.040;8.850;2023-09-19T14:12:09;23.30;97.20
32334;DHT22;18810;53.040;8.850;2023-09-19T14:14:35;23.00;97.10
32334;DHT22;18810;53.040;8.850;2023-09-19T14:17:03;22.60;97.90
32334;DHT22;18810;53.040;8.850;2023-09-19T14:19:28;22.80;97.90
32334;DHT22;18810;53.040;8.850;2023-09-19T14:21:54;23.00;97.80
32334;DHT22;18810;53.040;8.850;2023-09-19T14:24:23;22.80;97.90
32334;DHT22;18810;53.040;8.850;2023-09-19T14:26:49;23.20;97.50
32334;DHT22;18810;53.040;8.850;2023-09-19T14:29:16;22.80;97.90
32334;DHT22;18810;53.040;8.850;2023-09-19T14:31:42;22.10;98.20
32334;DHT22;18810;53.040;8.850;2023-09-19T14:34:08;21.70;99.20
32334;DHT22;18810;53.040;8.850;2023-09-19T14:36:37;21.60;99.90
32334;DHT22;18810;53.040;8.850;2023-09-19T14:39:06;21.40;99.40
32334;DHT22;18810;53.040;8.850;2023-09-19T14:41:31;21.30;99.90
32334;DHT22;18810;53.040;8.850;2023-09-19T14:43:57;21.30;99.90
32334;DHT22;18810;53.040;8.850;2023-09-19T14:46:23;21.30;99.90
32334;DHT22;18810;53.040;8.850;2023-09-19T14:48:52;21.20;99.90
32334;DHT22;18810;53.040;8.850;2023-09-19T14:51:18;21.20;99.90
32334;DHT22;18810;53.040;8.850;2023-09-19T14:53:45;21.40;99.90
32334;DHT22;18810;53.040;8.850;2023-09-19T14:56:14;21.80;99.70
32334;DHT22;18810;53.040;8.850;2023-09-19T14:58:44;21.80;99.60
32334;DHT22;18810;53.040;8.850;2023-09-19T15:01:11;21.90;99.90
32334;DHT22;18810;53.040;8.850;2023-09-19T15:03:38;21.70;99.60
32334;DHT22;18810;53.040;8.850;2023-09-19T15:06:07;21.40;99.90
32334;DHT22;18810;53.040;8.850;2023-09-19T15:08:37;21.40;99.90
32334;DHT22;18810;53.040;8.850;2023-09-19T15:11:09;21.10;99.90
32334;DHT22;18810;53.040;8.850;2023-09-19T15:13:36;20.90;99.90
32334;DHT22;18810;53.040;8.850;2023-09-19T15:16:03;20.80;99.90
32334;DHT22;18810;53.040;8.850;2023-09-19T15:18:30;20.70;99.90
32334;DHT22;18810;53.040;8.850;2023-09-19T15:21:05;20.80;99.90
32334;DHT22;18810;53.040;8.850;2023-09-19T15:23:34;20.90;99.90
32334;DHT22;18810;53.040;8.850;2023-09-19T15:26:06;20.90;99.90
32334;DHT22;18810;53.040;8.850;2023-09-19T15:28:32;20.70;99.90
32334;DHT22;18810;53.040;8.850;2023-09-19T15:31:02;20.50;99.90
32334;DHT22;18810;53.040;8.850;2023-09-19T15:33:29;20.50;99.90
32334;DHT22;18810;53.040;8.850;2023-09-19T15:36:13;20.50;99.90
32334;DHT22;18810;53.040;8.850;2023-09-19T15:39:08;20.50;99.90
32334;DHT22;18810;53.040;8.850;2023-09-19T15:41:44;20.40;99.90
32334;DHT22;18810;53.040;8.850;2023-09-19T15:44:17;20.50;99.90
32334;DHT22;18810;53.040;8.850;2023-09-19T15:46:44;20.60;99.90
32334;DHT22;18810;53.040;8.850;2023-09-19T15:49:10;20.70;99.90
32334;DHT22;18810;53.040;8.850;2023-09-19T15:51:36;20.60;99.90
32334;DHT22;18810;53.040;8.850;2023-09-19T15:54:07;20.50;99.90
32334;DHT22;18810;53.040;8.850;2023-09-19T15:56:33;20.40;99.90
32334;DHT22;18810;53.040;8.850;2023-09-19T15:59:02;20.20;99.90
32334;DHT22;18810;53.040;8.850;2023-09-19T16:01:28;20.20;99.90
32334;DHT22;18810;53.040;8.850;2023-09-19T16:03:54;20.30;99.90
32334;DHT22;18810;53.040;8.850;2023-09-19T16:06:26;20.30;99.90
32334;DHT22;18810;53.040;8.850;2023-09-19T16:08:55;20.30;99.90
32334;DHT22;18810;53.040;8.850;2023-09-19T16:11:24;20.20;99.90
32334;DHT22;18810;53.040;8.850;2023-09-19T16:13:51;20.10;99.90
32334;DHT22;18810;53.040;8.850;2023-09-19T16:16:19;20.00;99.90
32334;DHT22;18810;53.040;8.850;2023-09-19T16:18:51;20.00;99.90
32334;DHT22;18810;53.040;8.850;2023-09-19T16:21:18;19.90;99.90